Time;durP1;ratioP1;P1;durP2;ratioP2;P2;SDS_P1;SDS_P2;PMS_P1;PMS_P2;Temp;Humidity;BMP_temperature;BMP_pressure;BME280_temperature;BME280_humidity;BME280_pressure;Samples;Min_cycle;Max_cycle;Signal;HPM_P1;HPM_P2
2023/01/12 00:01:56;;;;;;;36.53;20.70;;;;;;;;;;5037550;28;20038;-75
2023/01/12 00:04:21;;;;;;;39.38;21.40;;;;;;;;;;5037594;28;20034;-75
2023/01/12 00:06:46;;;;;;;38.92;22.48;;;;;;;;;;5037414;28;20041;-75
2023/01/12 00:09:12;;;;;;;34.17;20.33;;;;;;;;;;5037097;28;20103;-75
2023/01/12 00:11:38;;;;;;;28.08;18.45;;;;;;;;;;5036105;28;20029;-75
2023/01/12 00:14:07;;;;;;;30.52;18.20;;;;;;;;;;5037383;28;20065;-75
2023/01/12 00:16:40;;;;;;;29.17;17.98;;;;;;;;;;5037269;28;20116;-75
2023/01/12 00:19:15;;;;;;;30.42;17.80;;;;;;;;;;5037267;28;20041;-75
2023/01/12 00:24:27;;;;;;;29.42;17.50;;;;;;;;;;5037285;28;20033;-71
2023/01/12 00:26:53;;;;;;;27.35;16.65;;;;;;;;;;5035742;28;20462;-71
2023/01/12 00:29:19;;;;;;;25.42;15.75;;;;;;;;;;5037046;28;20033;-71
2023/01/12 00:31:46;;;;;;;24.35;15.30;;;;;;;;;;5035542;28;20037;-71
2023/01/12 00:34:11;;;;;;;25.23;14.80;;;;;;;;;;5037243;28;20076;-71
2023/01/12 00:36:36;;;;;;;22.65;13.25;;;;;;;;;;5036868;28;20044;-71
2023/01/12 00:39:02;;;;;;;22.05;12.82;;;;;;;;;;5036591;28;20045;-71
2023/01/12 00:46:55;;;;;;;18.65;10.25;;;;;;;;;;5036380;28;20050;-70
2023/01/12 00:49:21;;;;;;;16.83;10.50;;;;;;;;;;5018954;28;20136;-70
2023/01/12 00:51:46;;;;;;;18.58;10.95;;;;;;;;;;5036812;28;20121;-71
2023/01/12 00:54:12;;;;;;;16.95;10.57;;;;;;;;;;5035400;28;20033;-73
2023/01/12 00:56:37;;;;;;;15.98;10.20;;;;;;;;;;5035233;28;20040;-72
2023/01/12 00:59:03;;;;;;;14.75;9.63;;;;;;;;;;5036334;28;20037;-72
2023/01/12 01:01:30;;;;;;;14.23;9.05;;;;;;;;;;5036178;28;20041;-72
2023/01/12 01:03:55;;;;;;;12.55;8.52;;;;;;;;;;5036109;28;20083;-72
2023/01/12 01:06:22;;;;;;;12.88;7.55;;;;;;;;;;5036483;28;20491;-72
2023/01/12 01:08:48;;;;;;;12.57;7.50;;;;;;;;;;5035122;28;20041;-72
2023/01/12 01:11:14;;;;;;;10.27;6.55;;;;;;;;;;5034935;28;20397;-72
2023/01/12 01:13:40;;;;;;;8.32;6.72;;;;;;;;;;5034933;28;20041;-72
2023/01/12 01:16:06;;;;;;;10.38;7.07;;;;;;;;;;5018131;28;20033;-72
2023/01/12 01:18:32;;;;;;;9.85;6.32;;;;;;;;;;5035779;28;20413;-70
2023/01/12 01:20:57;;;;;;;10.50;6.22;;;;;;;;;;5035709;28;20043;-70
2023/01/12 01:23:23;;;;;;;8.23;6.13;;;;;;;;;;5035722;28;20472;-71
2023/01/12 01:25:49;;;;;;;9.70;6.10;;;;;;;;;;5034752;28;20029;-71
2023/01/12 01:28:14;;;;;;;9.45;5.70;;;;;;;;;;5035833;28;20041;-70
2023/01/12 01:30:40;;;;;;;8.68;5.80;;;;;;;;;;5034563;28;20069;-71
2023/01/12 01:33:05;;;;;;;7.20;5.68;;;;;;;;;;5035949;28;20046;-74
2023/01/12 01:35:31;;;;;;;7.18;5.63;;;;;;;;;;5035917;28;20034;-74
2023/01/12 01:37:57;;;;;;;8.02;5.50;;;;;;;;;;5035877;28;20083;-75
2023/01/12 01:40:22;;;;;;;7.20;5.15;;;;;;;;;;5034862;28;20042;-74
2023/01/12 01:42:47;;;;;;;9.70;5.50;;;;;;;;;;5035896;28;20389;-75
2023/01/12 01:45:15;;;;;;;5.22;4.65;;;;;;;;;;5035877;28;20067;-72
2023/01/12 01:47:44;;;;;;;6.00;5.00;;;;;;;;;;5034309;28;20045;-71
2023/01/12 01:50:22;;;;;;;5.75;5.03;;;;;;;;;;5035478;28;20055;-71
2023/01/12 01:52:50;;;;;;;6.45;5.07;;;;;;;;;;5035783;28;20041;-71
2023/01/12 01:55:19;;;;;;;6.05;4.88;;;;;;;;;;5035374;28;20045;-71
2023/01/12 01:57:47;;;;;;;7.32;5.20;;;;;;;;;;5035259;28;20041;-71
2023/01/12 02:00:12;;;;;;;6.60;4.90;;;;;;;;;;5035333;28;20025;-71
2023/01/12 02:02:38;;;;;;;7.65;5.80;;;;;;;;;;5035398;28;20037;-71
2023/01/12 02:05:04;;;;;;;7.00;4.95;;;;;;;;;;5035382;28;20125;-71
2023/01/12 02:07:29;;;;;;;8.65;5.18;;;;;;;;;;5035182;28;20026;-72
2023/01/12 02:09:55;;;;;;;6.45;5.13;;;;;;;;;;5035356;28;20461;-72
2023/01/12 02:18:13;;;;;;;6.07;4.78;;;;;;;;;;5032712;28;19917;-72
2023/01/12 02:20:42;;;;;;;5.82;5.13;;;;;;;;;;5034904;28;20126;-72
2023/01/12 02:23:23;;;;;;;5.47;4.95;;;;;;;;;;5034722;28;20041;-72
2023/01/12 02:26:07;;;;;;;5.63;4.28;;;;;;;;;;5034879;28;20452;-72
2023/01/12 02:28:32;;;;;;;5.75;4.68;;;;;;;;;;5034822;28;20056;-72
2023/01/12 02:31:03;;;;;;;4.93;4.43;;;;;;;;;;5034860;28;20049;-72
2023/01/12 02:33:48;;;;;;;5.95;4.60;;;;;;;;;;5034697;28;20042;-72
2023/01/12 02:36:24;;;;;;;8.00;5.20;;;;;;;;;;5033538;28;20044;-72
2023/01/12 02:38:56;;;;;;;4.97;4.43;;;;;;;;;;5033264;28;20038;-72
2023/01/12 02:44:14;;;;;;;5.05;4.55;;;;;;;;;;5034389;28;20037;-72
2023/01/12 02:46:42;;;;;;;5.23;4.60;;;;;;;;;;5033406;28;20441;-72
2023/01/12 02:49:11;;;;;;;4.95;4.43;;;;;;;;;;5034414;28;20069;-72
2023/01/12 02:51:39;;;;;;;5.22;4.13;;;;;;;;;;5033122;28;20053;-72
2023/01/12 02:54:05;;;;;;;5.28;4.25;;;;;;;;;;5034406;28;20052;-72
2023/01/12 02:56:36;;;;;;;5.13;4.07;;;;;;;;;;5033123;28;20088;-72
2023/01/12 02:59:06;;;;;;;5.53;4.30;;;;;;;;;;5034219;28;20496;-73
2023/01/12 03:01:32;;;;;;;6.32;4.38;;;;;;;;;;5016555;28;20026;-73
2023/01/12 03:03:59;;;;;;;5.18;4.05;;;;;;;;;;5034209;28;20399;-73
2023/01/12 03:06:36;;;;;;;4.78;4.30;;;;;;;;;;5034243;28;20029;-73
2023/01/12 03:09:01;;;;;;;6.15;4.68;;;;;;;;;;5032900;28;20045;-73
2023/01/12 03:11:26;;;;;;;4.72;3.97;;;;;;;;;;5034142;28;20045;-73
2023/01/12 03:13:58;;;;;;;6.47;4.53;;;;;;;;;;5033823;28;20052;-73
2023/01/12 03:16:26;;;;;;;4.20;3.80;;;;;;;;;;5034360;28;20037;-74
2023/01/12 03:19:14;;;;;;;5.03;4.53;;;;;;;;;;5033821;28;20049;-73
2023/01/12 03:21:57;;;;;;;4.47;4.07;;;;;;;;;;5032754;28;20508;-73
2023/01/12 03:24:26;;;;;;;4.93;4.10;;;;;;;;;;5033763;28;20416;-73
2023/01/12 03:26:54;;;;;;;4.90;4.28;;;;;;;;;;5033709;28;20029;-74
2023/01/12 03:29:19;;;;;;;5.30;3.90;;;;;;;;;;5032310;28;20045;-75
2023/01/12 03:31:45;;;;;;;4.97;4.03;;;;;;;;;;5031915;28;20045;-75
2023/01/12 03:34:10;;;;;;;4.95;4.55;;;;;;;;;;5033745;28;20049;-73
2023/01/12 03:36:57;;;;;;;5.40;4.55;;;;;;;;;;5033614;28;20037;-71
2023/01/12 03:39:40;;;;;;;4.65;4.07;;;;;;;;;;5033592;28;20468;-74
2023/01/12 03:42:13;;;;;;;6.25;4.78;;;;;;;;;;5033797;28;20033;-72
2023/01/12 03:44:59;;;;;;;4.82;4.35;;;;;;;;;;5033197;28;20116;-72
2023/01/12 03:47:27;;;;;;;3.47;3.20;;;;;;;;;;5032762;28;20128;-72
2023/01/12 03:50:02;;;;;;;5.47;3.85;;;;;;;;;;5033064;28;20038;-72
2023/01/12 03:52:29;;;;;;;4.90;3.80;;;;;;;;;;5033282;28;20033;-71
2023/01/12 03:54:55;;;;;;;4.05;3.47;;;;;;;;;;5032030;28;20045;-71
2023/01/12 03:57:21;;;;;;;5.43;4.60;;;;;;;;;;5032198;28;20451;-71
2023/01/12 03:59:46;;;;;;;3.92;3.42;;;;;;;;;;5033361;28;20048;-71
2023/01/12 04:02:12;;;;;;;3.83;3.45;;;;;;;;;;5033452;28;20033;-72
2023/01/12 04:04:37;;;;;;;4.70;3.97;;;;;;;;;;5033250;28;20503;-72
2023/01/12 04:07:03;;;;;;;4.45;4.05;;;;;;;;;;5033036;28;20396;-72
2023/01/12 04:09:28;;;;;;;5.32;3.95;;;;;;;;;;5031890;28;20077;-70
2023/01/12 04:12:12;;;;;;;4.63;4.22;;;;;;;;;;5033125;28;20100;-72
2023/01/12 04:14:41;;;;;;;5.35;3.78;;;;;;;;;;5031929;28;20198;-72
2023/01/12 04:17:09;;;;;;;4.32;3.95;;;;;;;;;;5031951;28;20050;-73
2023/01/12 04:19:34;;;;;;;4.45;4.05;;;;;;;;;;5033058;28;20049;-72
2023/01/12 04:24:43;;;;;;;4.00;3.70;;;;;;;;;;5033182;28;20033;-70
2023/01/12 04:27:09;;;;;;;3.83;3.53;;;;;;;;;;5031918;28;20469;-70
2023/01/12 04:29:34;;;;;;;4.10;3.80;;;;;;;;;;5032989;28;20041;-70
2023/01/12 04:31:59;;;;;;;3.13;2.92;;;;;;;;;;5033127;28;20029;-70
2023/01/12 04:34:24;;;;;;;4.63;4.22;;;;;;;;;;5033211;28;20076;-70
2023/01/12 04:36:50;;;;;;;4.05;3.38;;;;;;;;;;5033102;28;20069;-70
2023/01/12 04:39:15;;;;;;;3.38;3.17;;;;;;;;;;5015239;28;20408;-71
2023/01/12 04:41:40;;;;;;;3.72;3.42;;;;;;;;;;5031844;28;20037;-70
2023/01/12 04:44:06;;;;;;;4.13;3.80;;;;;;;;;;5035996;28;20033;-70
2023/01/12 04:46:31;;;;;;;3.90;3.47;;;;;;;;;;5026278;28;20037;-68
2023/01/12 04:48:57;;;;;;;4.70;4.35;;;;;;;;;;5016848;28;20447;-68
2023/01/12 04:51:23;;;;;;;3.65;3.35;;;;;;;;;;5015353;28;20560;-68
2023/01/12 04:53:50;;;;;;;3.63;3.33;;;;;;;;;;5016963;28;20040;-69
2023/01/12 04:56:15;;;;;;;4.72;4.32;;;;;;;;;;5016632;28;20026;-68
2023/01/12 04:58:41;;;;;;;6.20;4.35;;;;;;;;;;5016783;28;20053;-67
2023/01/12 05:01:07;;;;;;;6.85;5.05;;;;;;;;;;5016747;28;20053;-67
2023/01/12 05:03:33;;;;;;;5.30;4.47;;;;;;;;;;5015524;28;20135;-68
2023/01/12 05:06:00;;;;;;;4.95;4.50;;;;;;;;;;5015969;28;20022;-68
2023/01/12 05:11:09;;;;;;;5.78;4.82;;;;;;;;;;5015510;28;20100;-68
2023/01/12 05:13:34;;;;;;;4.20;3.65;;;;;;;;;;5014676;28;20058;-67
2023/01/12 05:16:14;;;;;;;5.35;4.80;;;;;;;;;;5015889;28;20042;-68
2023/01/12 05:18:40;;;;;;;4.07;3.60;;;;;;;;;;4981681;28;20525;-68
2023/01/12 05:21:05;;;;;;;4.90;4.25;;;;;;;;;;5015921;28;20065;-68
2023/01/12 05:23:30;;;;;;;3.90;3.60;;;;;;;;;;5015811;28;20034;-68
2023/01/12 05:25:59;;;;;;;4.38;3.97;;;;;;;;;;5015954;28;20069;-68
2023/01/12 05:28:25;;;;;;;4.97;4.55;;;;;;;;;;5014774;28;20048;-68
2023/01/12 05:30:51;;;;;;;3.88;3.53;;;;;;;;;;5015777;28;20041;-68
2023/01/12 05:33:18;;;;;;;5.22;4.57;;;;;;;;;;5015718;28;20050;-68
2023/01/12 05:35:43;;;;;;;5.30;4.85;;;;;;;;;;5015819;28;20129;-68
2023/01/12 05:38:08;;;;;;;6.25;5.60;;;;;;;;;;5015713;28;20133;-68
2023/01/12 05:40:34;;;;;;;5.07;4.68;;;;;;;;;;5015692;28;20034;-68
2023/01/12 05:45:43;;;;;;;8.30;6.80;;;;;;;;;;5015211;28;20046;-68
2023/01/12 05:48:10;;;;;;;4.75;4.38;;;;;;;;;;4998220;28;20084;-68
2023/01/12 05:50:36;;;;;;;6.20;5.10;;;;;;;;;;5015672;28;20394;-68
2023/01/12 05:53:08;;;;;;;5.18;4.68;;;;;;;;;;5015210;28;20042;-70
2023/01/12 05:55:34;;;;;;;4.57;4.18;;;;;;;;;;5014258;28;20041;-73
2023/01/12 05:58:00;;;;;;;6.80;5.50;;;;;;;;;;5015082;28;20111;-71
2023/01/12 06:00:25;;;;;;;8.93;6.05;;;;;;;;;;5013949;28;20108;-71
2023/01/12 06:02:50;;;;;;;8.20;6.60;;;;;;;;;;5013993;28;20034;-70
2023/01/12 06:05:16;;;;;;;8.85;7.68;;;;;;;;;;5015341;28;20041;-68
2023/01/12 06:07:41;;;;;;;6.47;5.88;;;;;;;;;;5015096;28;20366;-70
2023/01/12 06:10:07;;;;;;;6.60;5.70;;;;;;;;;;5015164;28;20037;-70
2023/01/12 06:15:16;;;;;;;7.68;5.90;;;;;;;;;;5013862;28;20125;-70
2023/01/12 06:17:42;;;;;;;7.65;6.22;;;;;;;;;;5014942;28;20118;-68
2023/01/12 06:20:08;;;;;;;9.23;7.00;;;;;;;;;;5013846;28;20049;-70
2023/01/12 06:22:33;;;;;;;14.40;9.38;;;;;;;;;;5014399;28;20072;-70
2023/01/12 06:24:58;;;;;;;8.48;7.57;;;;;;;;;;5014620;28;20092;-71
2023/01/12 06:27:24;;;;;;;7.45;6.78;;;;;;;;;;5015017;28;20453;-71
2023/01/12 06:29:49;;;;;;;8.65;7.60;;;;;;;;;;5013865;28;20041;-69
2023/01/12 06:32:15;;;;;;;9.57;7.10;;;;;;;;;;5013868;28;20474;-69
2023/01/12 06:34:40;;;;;;;8.45;6.82;;;;;;;;;;5013698;28;20485;-70
2023/01/12 06:37:07;;;;;;;9.48;8.50;;;;;;;;;;5013589;28;20072;-70
2023/01/12 06:39:33;;;;;;;8.32;7.40;;;;;;;;;;5014132;28;20059;-70
2023/01/12 06:44:43;;;;;;;6.88;5.90;;;;;;;;;;5014370;28;20062;-69
2023/01/12 06:47:08;;;;;;;4.68;4.07;;;;;;;;;;5014524;28;20076;-69
2023/01/12 06:49:34;;;;;;;6.32;5.63;;;;;;;;;;5013360;28;20482;-69
2023/01/12 06:51:59;;;;;;;9.25;6.88;;;;;;;;;;5012536;28;20109;-69
2023/01/12 06:54:24;;;;;;;10.15;7.68;;;;;;;;;;5012609;28;20410;-69
2023/01/12 06:56:50;;;;;;;8.05;7.30;;;;;;;;;;5012847;28;20113;-69
2023/01/12 06:59:15;;;;;;;6.35;5.75;;;;;;;;;;5012935;28;20018;-68
2023/01/12 07:01:40;;;;;;;5.53;4.97;;;;;;;;;;5013089;28;20393;-64
2023/01/12 07:04:06;;;;;;;7.82;5.90;;;;;;;;;;5012472;28;20245;-69
2023/01/12 07:06:31;;;;;;;5.25;4.57;;;;;;;;;;5011664;28;20034;-64
2023/01/12 07:08:57;;;;;;;7.38;6.50;;;;;;;;;;5012292;28;20071;-64
2023/01/12 07:11:22;;;;;;;6.80;5.88;;;;;;;;;;5011205;28;20524;-64
2023/01/12 07:13:47;;;;;;;7.53;6.53;;;;;;;;;;5011518;28;20037;-64
2023/01/12 07:16:13;;;;;;;6.13;5.55;;;;;;;;;;5011483;28;20038;-64
2023/01/12 07:18:38;;;;;;;5.18;4.63;;;;;;;;;;5012610;28;20420;-64
2023/01/12 07:21:04;;;;;;;7.35;5.45;;;;;;;;;;5013676;28;20029;-64
2023/01/12 07:23:29;;;;;;;5.20;4.70;;;;;;;;;;5012208;28;20049;-64
2023/01/12 07:25:55;;;;;;;6.32;5.10;;;;;;;;;;5012175;28;20359;-64
2023/01/12 07:28:20;;;;;;;7.22;6.60;;;;;;;;;;5013533;28;20137;-64
2023/01/12 07:30:46;;;;;;;7.43;6.68;;;;;;;;;;5013288;28;20429;-64
2023/01/12 07:33:13;;;;;;;6.72;5.38;;;;;;;;;;5013207;28;20407;-64
2023/01/12 07:35:39;;;;;;;8.48;6.40;;;;;;;;;;5013154;28;20073;-64
2023/01/12 07:38:05;;;;;;;8.00;7.10;;;;;;;;;;5013103;28;20064;-64
2023/01/12 07:40:32;;;;;;;7.80;6.25;;;;;;;;;;5013647;28;20084;-64
2023/01/12 07:43:05;;;;;;;9.65;6.18;;;;;;;;;;5013366;28;20030;-64
2023/01/12 07:45:30;;;;;;;8.32;7.50;;;;;;;;;;5011840;28;20062;-64
2023/01/12 07:47:55;;;;;;;8.63;7.28;;;;;;;;;;5012019;28;20491;-64
2023/01/12 07:50:21;;;;;;;6.68;5.47;;;;;;;;;;5012991;28;20061;-64
2023/01/12 07:52:47;;;;;;;7.05;6.25;;;;;;;;;;5013298;28;20041;-64
2023/01/12 07:55:12;;;;;;;7.25;6.53;;;;;;;;;;5013180;28;20069;-65
2023/01/12 07:57:37;;;;;;;8.15;7.32;;;;;;;;;;5013067;28;20046;-65
2023/01/12 08:00:04;;;;;;;10.73;7.20;;;;;;;;;;5012905;28;20026;-64
2023/01/12 08:02:29;;;;;;;6.50;5.75;;;;;;;;;;5013368;28;20038;-62
2023/01/12 08:04:54;;;;;;;8.10;6.45;;;;;;;;;;5013107;28;20033;-62
2023/01/12 08:07:20;;;;;;;6.65;6.00;;;;;;;;;;5013035;28;20038;-62
2023/01/12 08:09:45;;;;;;;9.68;7.60;;;;;;;;;;5013333;28;20072;-62
2023/01/12 08:12:10;;;;;;;4.75;4.05;;;;;;;;;;4975348;28;1081185;-62
2023/01/12 08:14:36;;;;;;;7.00;5.88;;;;;;;;;;5013576;28;20517;-62
2023/01/12 08:17:03;;;;;;;8.52;7.63;;;;;;;;;;5014125;28;20048;-62
2023/01/12 08:19:35;;;;;;;8.35;6.57;;;;;;;;;;5017377;28;20452;-62
2023/01/12 08:22:02;;;;;;;7.90;6.20;;;;;;;;;;5017418;28;20052;-62
2023/01/12 08:24:31;;;;;;;8.00;6.72;;;;;;;;;;5017368;28;20045;-62
2023/01/12 08:26:57;;;;;;;7.28;6.53;;;;;;;;;;5017312;28;20041;-62
2023/01/12 08:29:30;;;;;;;8.25;7.50;;;;;;;;;;5017284;28;20051;-62
2023/01/12 08:31:57;;;;;;;9.88;8.55;;;;;;;;;;5017243;28;20490;-62
2023/01/12 08:34:22;;;;;;;7.05;6.40;;;;;;;;;;5017145;28;20042;-62
2023/01/12 08:36:47;;;;;;;6.50;5.88;;;;;;;;;;5017437;28;20085;-62
2023/01/12 08:39:13;;;;;;;8.55;7.63;;;;;;;;;;5015755;28;20042;-62
2023/01/12 08:41:41;;;;;;;8.88;7.78;;;;;;;;;;5017066;28;20417;-62
2023/01/12 08:44:09;;;;;;;6.90;6.22;;;;;;;;;;5017026;28;20127;-62
2023/01/12 08:46:34;;;;;;;8.02;6.70;;;;;;;;;;5016947;28;20038;-62
2023/01/12 08:49:00;;;;;;;7.60;6.85;;;;;;;;;;5017179;28;20080;-62
2023/01/12 08:51:26;;;;;;;9.30;7.53;;;;;;;;;;5016685;28;20045;-62
2023/01/12 08:53:51;;;;;;;7.85;7.05;;;;;;;;;;5015902;28;20132;-64
2023/01/12 08:56:17;;;;;;;9.73;8.60;;;;;;;;;;5017024;28;20088;-64
2023/01/12 08:58:42;;;;;;;9.90;8.27;;;;;;;;;;5016635;28;20041;-62
2023/01/12 09:01:08;;;;;;;6.05;5.50;;;;;;;;;;5015447;28;20092;-62
2023/01/12 09:03:36;;;;;;;8.52;7.65;;;;;;;;;;5016915;28;20038;-62
2023/01/12 09:06:19;;;;;;;6.65;6.03;;;;;;;;;;5015706;28;20041;-64
2023/01/12 09:08:45;;;;;;;9.05;7.85;;;;;;;;;;5016865;28;20042;-64
2023/01/12 09:11:11;;;;;;;10.02;8.05;;;;;;;;;;5016763;28;20104;-64
2023/01/12 09:13:36;;;;;;;7.97;6.88;;;;;;;;;;5015160;28;20046;-64
2023/01/12 09:16:02;;;;;;;7.32;5.20;;;;;;;;;;5016980;28;20045;-64
2023/01/12 09:18:28;;;;;;;6.20;5.47;;;;;;;;;;5016615;28;20046;-64
2023/01/12 09:20:58;;;;;;;5.40;4.63;;;;;;;;;;5016901;28;20030;-64
2023/01/12 09:23:24;;;;;;;8.15;5.32;;;;;;;;;;5016320;28;20030;-64
2023/01/12 09:25:49;;;;;;;7.15;6.13;;;;;;;;;;5016760;28;20108;-64
2023/01/12 09:28:15;;;;;;;7.45;5.57;;;;;;;;;;5015455;28;20462;-64
2023/01/12 09:30:41;;;;;;;7.38;6.15;;;;;;;;;;5016142;28;20056;-64
2023/01/12 09:33:06;;;;;;;5.25;4.53;;;;;;;;;;5016374;28;20045;-64
2023/01/12 09:35:31;;;;;;;5.40;4.75;;;;;;;;;;5016320;28;20042;-64
2023/01/12 09:37:57;;;;;;;5.05;4.57;;;;;;;;;;5016200;28;20045;-64
2023/01/12 09:40:22;;;;;;;6.05;4.93;;;;;;;;;;5014697;28;20042;-64
2023/01/12 09:48:20;;;;;;;5.50;4.97;;;;;;;;;;5015807;28;20046;-64
2023/01/12 09:50:49;;;;;;;9.70;5.70;;;;;;;;;;5016024;28;20049;-64
2023/01/12 09:53:20;;;;;;;6.07;5.38;;;;;;;;;;5015742;28;20405;-64
2023/01/12 09:55:54;;;;;;;5.95;4.32;;;;;;;;;;5015996;28;20089;-64
2023/01/12 09:58:37;;;;;;;6.13;5.25;;;;;;;;;;5015861;28;20041;-64
2023/01/12 10:01:10;;;;;;;9.10;6.85;;;;;;;;;;5015845;28;20041;-64
2023/01/12 10:03:40;;;;;;;7.82;5.60;;;;;;;;;;5014642;28;20046;-64
2023/01/12 10:06:07;;;;;;;6.15;4.82;;;;;;;;;;5016081;28;20466;-64
2023/01/12 10:08:41;;;;;;;7.20;5.47;;;;;;;;;;5015718;28;20417;-64
2023/01/12 10:11:07;;;;;;;7.03;5.55;;;;;;;;;;5015654;28;20042;-64
2023/01/12 10:13:43;;;;;;;6.35;5.13;;;;;;;;;;5013944;28;20588;-64
2023/01/12 10:16:13;;;;;;;6.43;5.00;;;;;;;;;;5015573;28;20042;-64
2023/01/12 10:18:38;;;;;;;;;;;;;;;;;;5015883;28;20038;-64
2023/01/12 10:21:08;;;;;;;5.45;4.22;;;;;;;;;;5015575;28;19916;-64
2023/01/12 10:23:34;;;;;;;4.72;4.28;;;;;;;;;;5015431;28;20053;-64
2023/01/12 10:26:07;;;;;;;4.10;3.35;;;;;;;;;;5015088;28;20042;-64
2023/01/12 10:28:34;;;;;;;6.72;4.28;;;;;;;;;;5015357;28;20042;-64
2023/01/12 10:31:00;;;;;;;4.80;4.35;;;;;;;;;;5013742;28;20498;-64
2023/01/12 10:33:27;;;;;;;5.93;4.00;;;;;;;;;;5015028;28;20045;-64
2023/01/12 10:36:09;;;;;;;6.22;3.78;;;;;;;;;;5013683;28;20132;-64
2023/01/12 10:38:51;;;;;;;7.63;4.97;;;;;;;;;;5015065;28;20064;-64
2023/01/12 10:41:20;;;;;;;7.65;4.82;;;;;;;;;;5014073;28;20482;-64
2023/01/12 10:44:05;;;;;;;5.07;4.47;;;;;;;;;;5013520;28;20045;-64
2023/01/12 10:46:34;;;;;;;7.35;4.68;;;;;;;;;;5014195;28;20038;-64
2023/01/12 10:49:12;;;;;;;5.20;4.13;;;;;;;;;;5014955;28;20042;-64
2023/01/12 10:51:47;;;;;;;5.95;4.40;;;;;;;;;;5014662;28;20100;-64
2023/01/12 10:54:21;;;;;;;5.00;3.85;;;;;;;;;;5014870;28;20501;-64
2023/01/12 10:56:58;;;;;;;5.40;3.63;;;;;;;;;;5014852;28;20485;-64
2023/01/12 10:59:36;;;;;;;6.22;4.03;;;;;;;;;;5014468;28;20034;-64
2023/01/12 11:02:05;;;;;;;3.28;2.55;;;;;;;;;;5013896;28;20042;-64
2023/01/12 11:04:36;;;;;;;3.03;2.75;;;;;;;;;;5014727;28;20458;-64
2023/01/12 11:07:01;;;;;;;4.97;2.85;;;;;;;;;;5013445;28;20030;-64
2023/01/12 11:09:27;;;;;;;4.97;2.78;;;;;;;;;;5014391;28;20405;-64
2023/01/12 11:11:57;;;;;;;2.75;2.33;;;;;;;;;;5014163;28;20045;-64
2023/01/12 11:14:28;;;;;;;3.75;3.00;;;;;;;;;;5014858;28;20104;-64
2023/01/12 11:16:57;;;;;;;3.13;2.80;;;;;;;;;;5014522;28;20132;-64
2023/01/12 11:19:22;;;;;;;3.60;2.65;;;;;;;;;;5014437;28;20385;-64
2023/01/12 11:21:54;;;;;;;3.38;2.63;;;;;;;;;;5014427;28;20041;-64
2023/01/12 11:24:30;;;;;;;2.42;1.77;;;;;;;;;;5014426;28;20108;-64
2023/01/12 11:27:01;;;;;;;2.88;2.30;;;;;;;;;;5014094;28;20034;-64
2023/01/12 11:29:26;;;;;;;;;;;;;;;;;;5013249;28;20383;-64
2023/01/12 11:31:54;;;;;;;3.10;2.10;;;;;;;;;;5014034;28;19917;-64
2023/01/12 11:34:22;;;;;;;3.00;2.35;;;;;;;;;;5014252;28;20273;-64
2023/01/12 11:36:53;;;;;;;2.80;2.50;;;;;;;;;;5014222;28;20049;-64
2023/01/12 11:39:18;;;;;;;;;;;;;;;;;;5013149;28;20519;-64
2023/01/12 11:45:05;;;;;;;5.72;2.75;;;;;;;;;;5014426;28;20261;-64
2023/01/12 11:47:33;;;;;;;2.25;2.05;;;;;;;;;;4997096;28;20402;-64
2023/01/12 11:50:04;;;;;;;4.88;2.30;;;;;;;;;;5014112;28;20069;-64
2023/01/12 11:52:29;;;;;;;4.95;2.20;;;;;;;;;;5013410;28;20046;-64
2023/01/12 11:54:55;;;;;;;2.80;2.22;;;;;;;;;;5014079;28;20089;-64
2023/01/12 11:57:44;;;;;;;3.20;2.08;;;;;;;;;;5059410;23;20049;-65
2023/01/12 12:00:12;;;;;;;3.10;2.40;;;;;;;;;;5064157;22;20102;-67
2023/01/12 12:02:56;;;;;;;3.38;2.70;;;;;;;;;;5033223;28;20044;-62
2023/01/12 12:05:36;;;;;;;3.92;2.45;;;;;;;;;;5033407;28;20041;-62
2023/01/12 12:08:01;;;;;;;3.85;1.88;;;;;;;;;;5033465;28;20477;-62
2023/01/12 12:10:34;;;;;;;2.97;2.03;;;;;;;;;;5033421;28;20037;-62
2023/01/12 12:13:10;;;;;;;2.80;2.03;;;;;;;;;;5033295;28;20333;-62
2023/01/12 12:15:39;;;;;;;4.50;2.58;;;;;;;;;;5033289;28;20038;-62
2023/01/12 12:18:22;;;;;;;4.05;2.15;;;;;;;;;;5033203;28;20060;-62
2023/01/12 12:20:48;;;;;;;6.50;2.67;;;;;;;;;;5015679;28;20037;-62
2023/01/12 12:23:19;;;;;;;3.20;2.17;;;;;;;;;;5033287;28;20038;-62
2023/01/12 12:25:49;;;;;;;3.80;2.40;;;;;;;;;;5033342;28;20045;-62
2023/01/12 12:28:25;;;;;;;3.42;2.42;;;;;;;;;;5033272;28;20033;-62
2023/01/12 12:31:10;;;;;;;2.42;2.22;;;;;;;;;;5033241;28;20045;-62
2023/01/12 12:33:53;;;;;;;2.58;1.98;;;;;;;;;;5033145;28;20444;-62
2023/01/12 12:36:25;;;;;;;2.25;2.00;;;;;;;;;;5033084;28;20401;-62
2023/01/12 12:39:09;;;;;;;3.60;2.72;;;;;;;;;;5032982;28;20037;-62
2023/01/12 12:47:20;;;;;;;2.88;1.98;;;;;;;;;;5033072;28;20073;-62
2023/01/12 12:49:45;;;;;;;3.00;2.00;;;;;;;;;;5015259;28;20481;-62
2023/01/12 12:52:11;;;;;;;4.50;2.75;;;;;;;;;;5032985;28;20038;-62
2023/01/12 12:54:38;;;;;;;3.17;2.15;;;;;;;;;;5015179;28;20045;-62
2023/01/12 12:57:04;;;;;;;2.05;1.83;;;;;;;;;;5015216;28;20042;-62
2023/01/12 12:59:33;;;;;;;2.25;1.73;;;;;;;;;;5032839;28;20500;-62
2023/01/12 13:01:59;;;;;;;4.38;2.40;;;;;;;;;;5033281;28;20042;-62
2023/01/12 13:04:43;;;;;;;3.70;2.30;;;;;;;;;;5034693;28;20033;-62
2023/01/12 13:07:18;;;;;;;4.35;2.15;;;;;;;;;;5036504;28;20036;-62
2023/01/12 13:09:44;;;;;;;3.42;1.80;;;;;;;;;;5036300;28;20042;-62
2023/01/12 13:12:15;;;;;;;4.57;3.13;;;;;;;;;;5036324;28;20073;-62
2023/01/12 13:14:41;;;;;;;2.70;1.60;;;;;;;;;;5018464;28;20132;-62
2023/01/12 13:17:19;;;;;;;2.50;1.98;;;;;;;;;;5036174;28;20076;-62
2023/01/12 13:19:46;;;;;;;2.40;1.30;;;;;;;;;;5036071;28;20041;-62
2023/01/12 13:22:24;;;;;;;3.95;1.70;;;;;;;;;;5035740;28;20075;-62
2023/01/12 13:24:49;;;;;;;3.53;1.73;;;;;;;;;;5035851;28;20033;-62
2023/01/12 13:27:33;;;;;;;6.25;2.00;;;;;;;;;;5036280;28;20033;-72
2023/01/12 13:30:17;;;;;;;8.27;1.83;;;;;;;;;;5018305;28;20045;-73
2023/01/12 13:32:49;;;;;;;4.03;1.73;;;;;;;;;;5018646;28;20034;-74
2023/01/12 13:35:30;;;;;;;10.60;2.55;;;;;;;;;;5036352;28;20389;-72
2023/01/12 13:37:55;;;;;;;3.60;2.10;;;;;;;;;;5025717;28;20050;-72
2023/01/12 13:40:24;;;;;;;4.85;2.60;;;;;;;;;;5015298;28;20046;-72
2023/01/12 13:45:38;;;;;;;6.80;2.80;;;;;;;;;;5013318;28;20034;-69
2023/01/12 13:48:05;;;;;;;5.43;3.28;;;;;;;;;;4996790;28;20461;-70
2023/01/12 13:50:30;;;;;;;6.85;3.10;;;;;;;;;;5014284;28;20046;-70
2023/01/12 13:53:03;;;;;;;4.13;1.98;;;;;;;;;;4996515;28;20041;-70
2023/01/12 13:55:29;;;;;;;1.98;1.38;;;;;;;;;;5016159;28;20064;-70
2023/01/12 13:57:56;;;;;;;3.08;1.73;;;;;;;;;;4998120;28;20030;-70
2023/01/12 14:00:22;;;;;;;4.85;2.40;;;;;;;;;;4997394;28;20104;-70
2023/01/12 14:02:48;;;;;;;3.10;1.60;;;;;;;;;;5032193;28;20120;-70
2023/01/12 14:05:28;;;;;;;5.05;1.92;;;;;;;;;;5001177;28;20121;-70
2023/01/12 14:08:25;;;;;;;4.15;1.80;;;;;;;;;;5016998;28;20168;-70
2023/01/12 14:10:54;;;;;;;4.40;1.67;;;;;;;;;;5034989;28;20159;-70
2023/01/12 14:13:32;;;;;;;3.78;2.03;;;;;;;;;;5016744;28;20110;-71
2023/01/12 14:18:43;;;;;;;4.15;2.45;;;;;;;;;;5032063;28;20052;-71
2023/01/12 14:21:36;;;;;;;4.35;2.03;;;;;;;;;;5033523;28;20115;-71
2023/01/12 14:24:12;;;;;;;6.38;2.08;;;;;;;;;;5033823;28;20046;-70
2023/01/12 14:26:37;;;;;;;5.63;2.25;;;;;;;;;;5016131;28;20409;-68
2023/01/12 14:29:02;;;;;;;4.57;2.42;;;;;;;;;;5015045;28;20029;-68
2023/01/12 14:31:38;;;;;;;3.28;2.22;;;;;;;;;;5013197;28;20042;-69
2023/01/12 14:34:04;;;;;;;3.28;2.42;;;;;;;;;;5015441;28;20470;-69
2023/01/12 14:36:40;;;;;;;5.53;2.50;;;;;;;;;;5016366;28;20049;-69
2023/01/12 14:39:08;;;;;;;6.28;3.03;;;;;;;;;;5015964;28;20046;-69
2023/01/12 14:47:25;;;;;;;6.43;3.90;;;;;;;;;;5033048;28;20136;-69
2023/01/12 14:49:50;;;;;;;4.65;2.85;;;;;;;;;;5032720;28;20065;-68
2023/01/12 14:52:24;;;;;;;6.70;3.25;;;;;;;;;;5032059;28;20482;-69
2023/01/12 14:54:51;;;;;;;5.63;3.72;;;;;;;;;;5031962;28;20040;-68
2023/01/12 14:57:22;;;;;;;4.97;2.78;;;;;;;;;;5032002;28;20097;-69
2023/01/12 14:59:47;;;;;;;4.65;2.95;;;;;;;;;;5031795;28;20041;-69
2023/01/12 15:02:13;;;;;;;5.85;3.25;;;;;;;;;;5031279;28;20450;-68
2023/01/12 15:04:59;;;;;;;5.82;4.20;;;;;;;;;;5032162;28;20548;-68
2023/01/12 15:07:27;;;;;;;7.00;4.63;;;;;;;;;;5022145;28;20116;-68
2023/01/12 15:09:55;;;;;;;5.03;3.78;;;;;;;;;;5032980;28;20079;-69
2023/01/12 15:12:29;;;;;;;7.57;4.32;;;;;;;;;;5032932;28;20034;-69
2023/01/12 15:25:34;;;;;;;5.80;4.05;;;;;;;;;;5014809;28;20432;-69
2023/01/12 15:26:24;;;;;;;20.50;12.98;;;;;;;;;;5031704;28;20076;-69
2023/01/12 15:28:49;;;;;;;22.92;14.43;;;;;;;;;;5032706;28;20069;-69
2023/01/12 15:31:24;;;;;;;18.27;11.88;;;;;;;;;;5032643;28;20048;-69
2023/01/12 15:33:50;;;;;;;20.25;12.57;;;;;;;;;;5032362;28;20048;-69
2023/01/12 15:36:15;;;;;;;20.55;11.15;;;;;;;;;;5015126;28;20041;-69
2023/01/12 15:38:41;;;;;;;20.83;12.98;;;;;;;;;;5014839;28;20091;-69
2023/01/12 15:41:07;;;;;;;17.58;11.82;;;;;;;;;;5032550;28;20116;-69
2023/01/12 15:43:32;;;;;;;15.35;9.52;;;;;;;;;;5014834;28;20034;-68
2023/01/12 15:45:57;;;;;;;10.68;7.68;;;;;;;;;;5032485;28;20028;-69
2023/01/12 15:48:23;;;;;;;11.77;7.20;;;;;;;;;;5032428;28;20068;-68
2023/01/12 15:50:48;;;;;;;12.02;7.20;;;;;;;;;;5032397;28;20037;-68
2023/01/12 15:53:15;;;;;;;11.45;6.90;;;;;;;;;;5032358;28;20072;-68
2023/01/12 15:55:41;;;;;;;13.68;7.50;;;;;;;;;;5014970;28;20041;-68